Startpagina
METAR-TAF:

METAR-TAF

Vliegvelden :

Shanghai-Pudong, China

Luchthaven Shanghai Pudong

breedte: 31-07N, lengte: 121-46E, hoogte: 4 m

Actueel weer

Dit bericht is 29 minuten geleden gemaakt, om 01:30 UTC
Wind 8 kt uit het zuiden, variërend tussen het zuidoosten en het zuidwesten
Temperatuur 26°C
Vochtigheid 54%
Druk 1015 hPa
Zicht 10 km of meer
geen wolken onder 1500 m en geen cumulonimbus

METAR: ZSPD 290130Z 17004MPS 130V230 CAVOK 26/16 Q1015 NOSIG

Tijdstip: 09:59 (01:59 UTC)

Verwachting

Dit bericht is 4 uur en het 47 minuten geleden gemaakt, om 21:12 UTC
Verwachting geldig van 29 om 00 UTC tot 29 om 24 UTC
Wind 8 kt uit het zuidzuidoosten
Zicht: 6000 m
Verspreide wolken op 1600 ft

TAF: ZSPD 282112Z 2900/2924 15004MPS 6000 SCT016 TX31/2906Z TN18/2921Z

Waarnemingen en weersverwachtingen van meer dan 4000 vliegvelden (METAR en TAF).

De beschikbare stations zijn de gele en rode punten op de kaart.

Ga met uw muis naar het station om de naam te zien.

Klik dan om waarnemingen en weersverwachtingen te zien.

kaart wijzigen: klik op de groene knoppen met een zwart kruis om in te zoomen, op de groene knop met een streepje om uit te zoomen of op de groene pijlen voor aangrenzende kaarten.


METAR-TAF: